• Join FlightAware (Why Join?)
  • Login
  • US Flag 
12:32PM EDT


 

Airport Tracker/Info


-or-


 

Live Flight TrackerFlight Track Log ✈ ANE8734 ✈ 22-Jul-2014 ✈ LEVC / VLC - LEMH / MAH

Flight Track Log - Related Links

Times and Time Zones

All times are in EDT time to prevent confusion due to time zone crossing. See the ANE8734 flight status page for this flight to view local times or setup timezone preferences in your user account.

Time Position Orientation Groundspeed Altitude Reporting Facility
EDT Latitude Longitude Course Direction KTS MPH feet Rate Location/Type
01:57AM 39.6789 1.6050 83° East  Level Estimated
01:58AM 39.6874 1.7096 84° East  Level Estimated
01:59AM 39.6958 1.8143 84° East  Level Estimated
02:00AM 39.7042 1.9190 84° East  Level Estimated
02:01AM 39.7124 2.0237 84° East  Level Estimated
02:02AM 39.7205 2.1284 84° East  Level Estimated
02:03AM 39.7285 2.2331 84° East  Level Estimated
02:04AM 39.7365 2.3379 84° East  Level Estimated
02:05AM 39.7443 2.4427 84° East  Level Estimated
02:06AM 39.7520 2.5475 84° East  Level Estimated
02:07AM 39.7597 2.6524 85° East  Level Estimated
02:08AM 39.7673 2.7572 85° East  Level Estimated
02:09AM 39.7747 2.8621 85° East  Level Estimated
02:10AM 39.7821 2.9670 85° East  Level Estimated
02:11AM 39.7893 3.0720 85° East  Level Estimated
02:12AM 39.7965 3.1769 85° East  Level Estimated
02:13AM 39.8036 3.2819 85° East  Level Estimated
02:14AM 39.8106 3.3869 85° East  Level Estimated
02:15AM 39.8175 3.4919 85° East  Level Estimated
02:16AM 39.8243 3.5970 85° East  Level Estimated
02:17AM 39.8310 3.7020 85° East  Level Estimated
02:18AM 39.8376 3.8071 85° East  Level Estimated
02:19AM 39.8441 3.9122 85° East  Level Estimated
02:20AM 39.8506 4.0173 85° East  Level Estimated
02:21AM 39.8569 4.1225 85° East  Level Estimated
02:22AM 39.8626 4.2186 86° East  Level Estimated
02:23AM 39.8626 4.2186 North  Level Estimated
02:24AM 39.8626 4.2186 North  Level Estimated
02:25AM 39.8626 4.2186 North  Level Estimated
02:26AM 39.8626 4.2186 North  Level Estimated
02:27AM 39.8626 4.2186 North  Level Estimated
02:28AM 39.8626 4.2186 North  Level Estimated
02:29AM 39.8626 4.2186 North  Level Estimated
02:30AM 39.8626 4.2186 North  Level Estimated
02:31AM 39.8626 4.2186 North  Level Estimated
02:32AM 39.8626 4.2186 North  Level Estimated
02:33AM 39.8626 4.2186 North  Level Estimated